Home > Products > Valid Products > TAF

000
FTUS45 KGGW 310500
TAFOLF
TAF
KOLF 310520Z 3106/0106 00000KT P6SM BKN110
     FM311800 30008KT P6SM SCT110
     FM312100 28011KT P6SM VCTS SCT080CB
     FM010300 VRB03KT P6SM BKN100=



000
FTUS45 KGGW 310500
TAFGDV
TAF
KGDV 310520Z 3106/0106 VRB05KT P6SM BKN120
     FM311800 29008KT P6SM -SHRA BKN080
     FM312100 30009KT 6SM -TSRA BKN050CB BKN100
     FM010300 32008KT P6SM VCTS BKN060CB
      AMD LTD TO CLD VIS AND WIND=



000
FTUS45 KGGW 310500
TAFGDV
TAF
KGDV 310520Z 3106/0106 VRB05KT P6SM BKN120
     FM311800 29008KT P6SM -SHRA BKN080
     FM312100 30009KT 6SM -TSRA BKN050CB BKN100
     FM010300 32008KT P6SM VCTS BKN060CB
      AMD LTD TO CLD VIS AND WIND=



000
FTUS45 KGGW 310500
TAFGGW
TAF
KGGW 310520Z 3106/0106 VRB04KT P6SM BKN120
     FM311500 VRB03KT P6SM SCT100
     FM312100 29011KT P6SM VCTS SCT050CB BKN080
     FM010300 VRB06KT P6SM BKN100=



000
FTUS45 KGGW 310500
TAFOLF
TAF
KOLF 310520Z 3106/0106 00000KT P6SM BKN110
     FM311800 30008KT P6SM SCT110
     FM312100 28011KT P6SM VCTS SCT080CB
     FM010300 VRB03KT P6SM BKN100=



000
FTUS45 KGGW 310500
TAFSDY
TAF
KSDY 310520Z 3106/0106 VRB03KT P6SM BKN110
     FM312100 32008KT 6SM -TSRA BKN050CB BKN100
     FM010300 30009KT P6SM VCTS BKN060CB
      AMD LTD TO CLD VIS AND WIND=



000
FTUS45 KGGW 302300
TAFGDV
TAF
KGDV 302320Z 3100/3124 33009KT P6SM VCTS BKN110CB
     FM310600 VRB06KT P6SM BKN130
     FM311800 29008KT P6SM VCSH BKN110
      AMD LTD TO CLD VIS AND WIND=



000
FTUS45 KGGW 302300
TAFGGW
TAF
KGGW 302320Z 3100/3124 VRB05KT P6SM SCT090
     FM310600 VRB04KT P6SM BKN190
     FM311800 29009KT P6SM SCT100
     FM312100 29013KT P6SM SCT100=



000
FTUS45 KGGW 302300
TAFOLF
TAF
KOLF 302320Z 3100/3124 VRB05KT P6SM BKN110
     FM311800 28007KT P6SM SCT110
     FM312100 28011KT P6SM SCT110=



000
FTUS45 KGGW 302300
TAFSDY
TAF
KSDY 302320Z 3100/3124 31008KT P6SM VCTS BKN110CB
     FM310600 VRB05KT P6SM BKN140
     FM311800 30008KT P6SM VCSH BKN130
      AMD LTD TO CLD VIS AND WIND=



000
FTUS45 KGGW 302300
TAFGDV
TAF
KGDV 302320Z 3100/3124 33009KT P6SM VCTS BKN110CB
     FM310600 VRB06KT P6SM BKN130
     FM311800 29008KT P6SM VCSH BKN110
      AMD LTD TO CLD VIS AND WIND=



000
FTUS45 KGGW 302300
TAFOLF
TAF
KOLF 302320Z 3100/3124 VRB05KT P6SM BKN110
     FM311800 28007KT P6SM SCT110
     FM312100 28011KT P6SM SCT110=



000
FTUS45 KGGW 301700
TAFOLF
TAF
KOLF 301720Z 3018/3118 VRB05KT 6SM -SHRA OVC090
     FM310000 VRB05KT P6SM VCSH BKN045=



000
FTUS45 KGGW 301700
TAFGGW
TAF
KGGW 301720Z 3018/3118 VRB05KT 6SM -SHRA OVC090
     FM310000 VRB05KT P6SM VCSH BKN060
     FM311200 VRB04KT P6SM BKN090=



000
FTUS45 KGGW 301700
TAFOLF
TAF
KOLF 301720Z 3018/3118 VRB05KT 6SM -SHRA OVC090
     FM310000 VRB05KT P6SM VCSH BKN045=



000
FTUS45 KGGW 301700
TAFSDY
TAF
KSDY 301720Z 3018/3118 17012KT 6SM -SHRA OVC090
     FM310000 31008KT P6SM VCTS BKN045CB
     FM310600 VRB05KT P6SM BKN060
      AMD LTD TO CLD VIS AND WIND=



000
FTUS45 KGGW 301700
TAFGDV
TAF
KGDV 301720Z 3018/3118 VRB06KT P6SM -SHRA SCT100 BKN250
     FM310000 30009KT P6SM VCTS BKN050CB
     FM310600 VRB06KT P6SM BKN090
      AMD LTD TO CLD VIS AND WIND=



000
FTUS45 KGGW 301700
TAFGDV
TAF
KGDV 301720Z 3018/3118 VRB06KT P6SM -SHRA SCT100 BKN250
     FM310000 30009KT P6SM VCTS BKN050CB
     FM310600 VRB06KT P6SM BKN090
      AMD LTD TO CLD VIS AND WIND=



000
FTUS45 KGGW 301300 AAA
TAFOLF
TAF AMD
KOLF 301315Z 3013/3112 08008KT P6SM SCT130
     FM301415 VRB15KT P6SM TS SCT050CB BKN110
     FM301515 08008KT P6SM -SHRA SCT070 BKN120
     FM301900 32008KT P6SM VCTS SCT040CB OVC090
     FM302300 VRB03KT P6SM BKN200=



000
FTUS45 KGGW 301300 AAA
TAFOLF
TAF AMD
KOLF 301315Z 3013/3112 08008KT P6SM SCT130
     FM301415 VRB15KT P6SM TS SCT050CB BKN110
     FM301515 08008KT P6SM -SHRA SCT070 BKN120
     FM301900 32008KT P6SM VCTS SCT040CB OVC090
     FM302300 VRB03KT P6SM BKN200=



000
FTUS45 KGGW 301100 RRA
TAFOLF
TAF
KOLF 301145Z 3012/3112 13005KT P6SM SCT130
     FM301400 08011KT P6SM VCTS SCT050CB BKN120
     FM301900 32008KT P6SM VCTS SCT040CB OVC090
     FM302300 VRB03KT P6SM BKN200=



000
FTUS45 KGGW 301100 RRA
TAFGGW
TAF
KGGW 301145Z 3012/3112 12015KT P6SM VCTS SCT050CB BKN130
     FM301800 28007KT P6SM VCTS SCT060CB OVC090
     FM302200 VRB05KT P6SM BKN100=



000
FTUS45 KGGW 301100 RRA
TAFGDV
TAF
KGDV 301145Z 3012/3112 14006KT P6SM SKC
     FM301400 16009KT P6SM SCT120 BKN200
     FM302000 23012G18KT P6SM VCTS SCT060CB BKN110
     FM310100 33007KT P6SM BKN120
      AMD LTD TO CLD VIS AND WIND=



000
FTUS45 KGGW 301100 RRA
TAFSDY
TAF
KSDY 301145Z 3012/3112 16007KT P6SM SKC
     FM301500 16015KT P6SM BKN120
     FM302000 20012KT P6SM VCTS SCT050CB BKN100
     FM302300 27014KT P6SM VCTS SCT040CB BKN090
     FM310200 28005KT P6SM BKN250
      AMD LTD TO CLD VIS AND WIND=



000
FTUS45 KGGW 301100 RRA
TAFGDV
TAF
KGDV 301145Z 3012/3112 14006KT P6SM SKC
     FM301400 16009KT P6SM SCT120 BKN200
     FM302000 23012G18KT P6SM VCTS SCT060CB BKN110
     FM310100 33007KT P6SM BKN120
      AMD LTD TO CLD VIS AND WIND=



000
FTUS45 KGGW 301100 RRA
TAFOLF
TAF
KOLF 301145Z 3012/3112 13005KT P6SM SCT130
     FM301400 08011KT P6SM VCTS SCT050CB BKN120
     FM301900 32008KT P6SM VCTS SCT040CB OVC090
     FM302300 VRB03KT P6SM BKN200=



000
FTUS45 KGGW 300500
TAFSDY
TAF
KSDY 300527Z 3006/3106 00000KT P6SM SKC
     FM300900 16005KT 4SM BR SCT005
     FM301400 16010KT P6SM BKN200
     FM302200 30010KT P6SM VCTS SCT050CB BKN100
     FM310500 28005KT P6SM BKN250
      AMD LTD TO CLD VIS AND WIND=



000
FTUS45 KGGW 300500
TAFGGW
TAF
KGGW 300527Z 3006/3106 10009KT P6SM FEW250
     FM301000 12015KT P6SM SCT120 BKN200
     FM301400 VRB06KT P6SM VCTS SCT060CB OVC090
     FM302200 VRB05KT P6SM BKN250=



000
FTUS45 KGGW 300500
TAFOLF
TAF
KOLF 300527Z 3006/3106 08005KT P6SM FEW250
     FM301500 VRB05KT P6SM VCTS SCT090CB BKN120
     FM301900 VRB15G25KT 4SM -TSRA SCT025 OVC050CB
     FM302300 VRB03KT P6SM BKN200=



000
FTUS45 KGGW 300500
TAFGDV
TAF
KGDV 300527Z 3006/3106 14006KT P6SM SKC
     FM301300 16009KT P6SM SCT120 BKN200
     FM302000 VRB15G25KT P6SM VCTS SCT060CB BKN110
     FM310100 33007KT P6SM BKN120
      AMD LTD TO CLD VIS AND WIND=



000
FTUS45 KGGW 300500
TAFGDV
TAF
KGDV 300527Z 3006/3106 14006KT P6SM SKC
     FM301300 16009KT P6SM SCT120 BKN200
     FM302000 VRB15G25KT P6SM VCTS SCT060CB BKN110
     FM310100 33007KT P6SM BKN120
      AMD LTD TO CLD VIS AND WIND=



000
FTUS45 KGGW 300500
TAFOLF
TAF
KOLF 300527Z 3006/3106 08005KT P6SM FEW250
     FM301500 VRB05KT P6SM VCTS SCT090CB BKN120
     FM301900 VRB15G25KT 4SM -TSRA SCT025 OVC050CB
     FM302300 VRB03KT P6SM BKN200=



000
FTUS45 KGGW 292300 CCA
TAFOLF
TAF COR
KOLF 292327Z 3000/3024 VRB04KT P6SM FEW060
     FM301200 12007KT P6SM VCSH SCT008
     FM301500 13008KT P6SM VCSH SCT110
     FM301800 VRB04KT 6SM -SHRA OVC045=



000
FTUS45 KGGW 292300 CCA
TAFGDV
TAF COR
KGDV 292327Z 3000/3024 VRB06KT P6SM FEW060
     FM301500 15010KT P6SM SCT030
     FM301800 18010KT 6SM -SHRA BKN100
      AMD LTD TO CLD VIS AND WIND=



000
FTUS45 KGGW 292300 CCA
TAFGGW
TAF COR
KGGW 292327Z 3000/3024 VRB06KT P6SM FEW240
     FM300900 12010KT P6SM SCT150
     FM301200 12007KT 6SM -SHRA BKN027=



000
FTUS45 KGGW 292300 CCA
TAFSDY
TAF COR
KSDY 292327Z 3000/3024 VRB04KT P6SM FEW060
     FM301200 14009KT P6SM SCT004
     FM301800 18009KT 6SM -SHRA BKN060
      AMD LTD TO CLD VIS AND WIND=



000
FTUS45 KGGW 292300
TAFGDV
TAF
KGDV 292320Z 3000/3024 35009KT P6SM SCT045
     FM300300 VRB06KT P6SM FEW230
     FM300900 VRB06KT 5SM BR FEW040
     FM301500 15010KT P6SM SCT100
      AMD LTD TO CLD VIS AND WIND=



000
FTUS45 KGGW 292300
TAFOLF
TAF
KOLF 292320Z 3000/3024 VRB05KT P6SM SCT045
     FM300200 VRB04KT P6SM FEW240
     FM301200 13009KT P6SM VCSH SCT012
     FM301500 13009KT P6SM VCSH SCT140=



000
FTUS45 KGGW 292300
TAFGGW
TAF
KGGW 292320Z 3000/3024 VRB03KT P6SM SCT060
     FM300600 11008KT P6SM SCT250
     FM301200 13008KT 6SM -SHRA BKN017=



000
FTUS45 KGGW 292300
TAFSDY
TAF
KSDY 292320Z 3000/3024 36008KT P6SM SCT045
     FM300200 VRB04KT P6SM FEW140
     FM301200 14010KT P6SM SCT070
      AMD LTD TO CLD VIS AND WIND=



000
FTUS45 KGGW 292300
TAFGDV
TAF
KGDV 292320Z 3000/3024 35009KT P6SM SCT045
     FM300300 VRB06KT P6SM FEW230
     FM300900 VRB06KT 5SM BR FEW040
     FM301500 15010KT P6SM SCT100
      AMD LTD TO CLD VIS AND WIND=



000
FTUS45 KGGW 292300
TAFOLF
TAF
KOLF 292320Z 3000/3024 VRB05KT P6SM SCT045
     FM300200 VRB04KT P6SM FEW240
     FM301200 13009KT P6SM VCSH SCT012
     FM301500 13009KT P6SM VCSH SCT140=



000
FTUS45 KGGW 291700
TAFGDV
TAF
KGDV 291720Z 2918/3018 35009KT P6SM SCT045
     FM300300 VRB06KT P6SM FEW230
     FM301000 VRB06KT P6SM FEW010 SCT040
     FM301700 15010KT P6SM VCSH BKN100
      AMD LTD TO CLD VIS AND WIND=



000
FTUS45 KGGW 291700
TAFGGW
TAF
KGGW 291720Z 2918/3018 VRB03KT P6SM SCT060
     FM300600 11008KT P6SM SCT250
     FM301000 13008KT P6SM BKN017
     FM301400 13010KT P6SM VCSH BKN100=



000
FTUS45 KGGW 291700
TAFSDY
TAF
KSDY 291720Z 2918/3018 36008KT P6SM SCT045
     FM300000 VRB04KT P6SM FEW140
     FM301000 14010KT P6SM SCT010
     FM301700 15013KT P6SM VCSH BKN100
      AMD LTD TO CLD VIS AND WIND=



000
FTUS45 KGGW 291700
TAFOLF
TAF
KOLF 291720Z 2918/3018 VRB05KT P6SM SCT045
     FM300000 VRB04KT P6SM FEW240
     FM301000 13009KT P6SM BKN015
     FM301500 13009KT P6SM VCSH BKN100=



000
FTUS45 KGGW 291700
TAFOLF
TAF
KOLF 291720Z 2918/3018 VRB05KT P6SM SCT045
     FM300000 VRB04KT P6SM FEW240
     FM301000 13009KT P6SM BKN015
     FM301500 13009KT P6SM VCSH BKN100=



000
FTUS45 KGGW 291700
TAFGDV
TAF
KGDV 291720Z 2918/3018 35009KT P6SM SCT045
     FM300300 VRB06KT P6SM FEW230
     FM301000 VRB06KT P6SM FEW010 SCT040
     FM301700 15010KT P6SM VCSH BKN100
      AMD LTD TO CLD VIS AND WIND=



000
FTUS45 KGGW 291100
TAFGGW
TAF
KGGW 291130Z 2912/3012 30007KT P6SM BKN040
     FM291600 VRB04KT P6SM SCT040
     FM300000 13010KT P6SM SKC=



000
FTUS45 KGGW 291100
TAFGDV
TAF
KGDV 291130Z 2912/3012 33009KT P6SM -SHRA SCT025 BKN080
     FM291400 35010KT P6SM BKN050
     FM291800 01007KT P6SM SCT050
     FM300100 VRB06KT P6SM SKC
      AMD LTD TO CLD VIS AND WIND=



000
FTUS45 KGGW 291100
TAFOLF
TAF
KOLF 291130Z 2912/3012 33008KT P6SM BKN050
     FM291800 VRB06KT P6SM SCT040
     FM300000 10006KT P6SM SKC=



000
FTUS45 KGGW 291100
TAFSDY
TAF
KSDY 291130Z 2912/3012 27005KT P6SM -SHRA SCT040 BKN090
     FM291400 34009KT P6SM BKN045
     FM291900 VRB06KT P6SM SCT050
     FM300000 VRB06KT P6SM SKC
      AMD LTD TO CLD VIS AND WIND=



000
FTUS45 KGGW 291100
TAFGDV
TAF
KGDV 291130Z 2912/3012 33009KT P6SM -SHRA SCT025 BKN080
     FM291400 35010KT P6SM BKN050
     FM291800 01007KT P6SM SCT050
     FM300100 VRB06KT P6SM SKC
      AMD LTD TO CLD VIS AND WIND=



000
FTUS45 KGGW 291100
TAFOLF
TAF
KOLF 291130Z 2912/3012 33008KT P6SM BKN050
     FM291800 VRB06KT P6SM SCT040
     FM300000 10006KT P6SM SKC=



000
FTUS45 KGGW 290500
TAFSDY
TAF
KSDY 290520Z 2906/3006 30009KT P6SM FEW250
     FM290900 33011KT P6SM VCTS BKN050CB
     FM291200 35005KT P6SM VCSH BKN040
     FM291800 VRB05KT P6SM BKN045
     FM300000 VRB06KT P6SM SKC
      AMD LTD TO CLD VIS AND WIND=



000
FTUS45 KGGW 290500
TAFOLF
TAF
KOLF 290520Z 2906/3006 VRB05KT 6SM -SHRA VCTS BKN050CB BKN080
      TEMPO 2906/2908 VRB30G40KT 3SM TSRA BKN040CB
     FM291200 36008KT P6SM VCSH BKN040
     FM291800 VRB06KT P6SM SCT040
     FM300000 10006KT P6SM SKC=



000
FTUS45 KGGW 290500
TAFGDV
TAF
KGDV 290520Z 2906/3006 30008KT P6SM FEW250
     FM290900 35009KT P6SM VCTS BKN050CB
     FM291200 35010KT P6SM VCSH BKN040
     FM291800 01007KT P6SM BKN050
     FM300100 VRB06KT P6SM SKC
      AMD LTD TO CLD VIS AND WIND=



000
FTUS45 KGGW 290500
TAFOLF
TAF
KOLF 290520Z 2906/3006 VRB05KT 6SM -SHRA VCTS BKN050CB BKN080
      TEMPO 2906/2908 VRB30G40KT 3SM TSRA BKN040CB
     FM291200 36008KT P6SM VCSH BKN040
     FM291800 VRB06KT P6SM SCT040
     FM300000 10006KT P6SM SKC=



000
FTUS45 KGGW 290500
TAFGGW
TAF
KGGW 290520Z 2906/3006 VRB06KT 6SM -SHRA VCTS BKN050CB BKN090
      TEMPO 2906/2907 VRB30G40KT 3SM TSRA BKN040CB
     FM291200 36007KT P6SM VCSH BKN040
     FM291800 VRB04KT P6SM SCT040
     FM300000 13010KT P6SM SKC=



000
FTUS45 KGGW 290500
TAFGDV
TAF
KGDV 290520Z 2906/3006 30008KT P6SM FEW250
     FM290900 35009KT P6SM VCTS BKN050CB
     FM291200 35010KT P6SM VCSH BKN040
     FM291800 01007KT P6SM BKN050
     FM300100 VRB06KT P6SM SKC
      AMD LTD TO CLD VIS AND WIND=



000
FTUS45 KGGW 290400 AAA
TAFGGW
TAF AMD
KGGW 290427Z 2904/2924 VRB06KT 6SM -SHRA VCTS BKN050CB BKN090
      TEMPO 2904/2907 VRB30G40KT 3SM TSRA BKN040CB
     FM291200 36007KT P6SM VCSH BKN040
     FM291800 VRB04KT P6SM SCT040=



000
FTUS45 KGGW 282300
TAFGDV
TAF
KGDV 282320Z 2900/2924 28008KT P6SM FEW250
     FM291200 36009KT P6SM VCSH BKN100
     FM291800 01007KT P6SM SCT070
      AMD LTD TO CLD VIS AND WIND=



000
FTUS45 KGGW 282300
TAFOLF
TAF
KOLF 282320Z 2900/2924 27010KT P6SM FEW250
     FM290600 VRB05KT 6SM -SHRA BKN110
     FM291200 36008KT P6SM BKN070
     FM291800 VRB06KT P6SM SCT040=



000
FTUS45 KGGW 282300
TAFGDV
TAF
KGDV 282320Z 2900/2924 28008KT P6SM FEW250
     FM291200 36009KT P6SM VCSH BKN100
     FM291800 01007KT P6SM SCT070
      AMD LTD TO CLD VIS AND WIND=



000
FTUS45 KGGW 282300
TAFGGW
TAF
KGGW 282320Z 2900/2924 29010KT P6SM FEW240
     FM290600 VRB06KT 6SM -SHRA BKN090
     FM291200 36007KT P6SM BKN080
     FM291800 VRB04KT P6SM SCT040=



000
FTUS45 KGGW 282300
TAFOLF
TAF
KOLF 282320Z 2900/2924 27010KT P6SM FEW250
     FM290600 VRB05KT 6SM -SHRA BKN110
     FM291200 36008KT P6SM BKN070
     FM291800 VRB06KT P6SM SCT040=



000
FTUS45 KGGW 282300
TAFSDY
TAF
KSDY 282320Z 2900/2924 30009KT P6SM FEW250
     FM290800 VRB05KT P6SM VCSH BKN210
     FM291200 36009KT P6SM VCSH BKN080
     FM292100 VRB05KT P6SM BKN045
      AMD LTD TO CLD VIS AND WIND=



000
FTUS45 KGGW 281700
TAFSDY
TAF
KSDY 281720Z 2818/2918 25010KT P6SM FEW100
     FM290600 VRB04KT P6SM VCSH SCT100 BKN210
     FM291200 01009KT P6SM VCSH BKN080
      AMD LTD TO CLD VIS AND WIND=



000
FTUS45 KGGW 281700
TAFGGW
TAF
KGGW 281720Z 2818/2918 27007KT P6SM FEW250
     FM282100 27012KT P6SM FEW250
     FM290300 VRB04KT P6SM SCT240
     FM290600 01008KT P6SM VCSH BKN090
     FM291200 VRB06KT P6SM BKN080=



000
FTUS45 KGGW 281700
TAFGDV
TAF
KGDV 281720Z 2818/2918 24007KT P6SM FEW100
     FM291200 01008KT P6SM VCSH BKN100
      AMD LTD TO CLD VIS AND WIND=



000
FTUS45 KGGW 281700
TAFGDV
TAF
KGDV 281720Z 2818/2918 24007KT P6SM FEW100
     FM291200 01008KT P6SM VCSH BKN100
      AMD LTD TO CLD VIS AND WIND=



000
FTUS45 KGGW 281700
TAFOLF
TAF
KOLF 281720Z 2818/2918 25010KT P6SM FEW110
     FM290600 VRB05KT P6SM VCSH SCT110
     FM291200 02007KT P6SM BKN070=



000
FTUS45 KGGW 281700
TAFOLF
TAF
KOLF 281720Z 2818/2918 25010KT P6SM FEW110
     FM290600 VRB05KT P6SM VCSH SCT110
     FM291200 02007KT P6SM BKN070=



000
FTUS45 KGGW 281100 RRA
TAFGDV
TAF
KGDV 281142Z 2812/2912 24008KT P6SM SKC
     FM281900 27010KT P6SM SKC
     FM290200 32010KT P6SM SCT100
      AMD LTD TO CLD VIS AND WIND=



000
FTUS45 KGGW 281100 RRA
TAFOLF
TAF
KOLF 281142Z 2812/2912 VRB05KT P6SM SKC
     FM282000 26011KT P6SM SKC
     FM290100 32010KT P6SM SCT100=



000
FTUS45 KGGW 281100 RRA
TAFSDY
TAF
KSDY 281142Z 2812/2912 VRB03KT 1/2SM FG OVC005
     FM281300 20006KT P6SM SKC
     FM282000 26012KT P6SM SKC
     FM290300 30010KT P6SM SCT100
      AMD LTD TO CLD VIS AND WIND=



000
FTUS45 KGGW 281100 RRA
TAFGDV
TAF
KGDV 281142Z 2812/2912 24008KT P6SM SKC
     FM281900 27010KT P6SM SKC
     FM290200 32010KT P6SM SCT100
      AMD LTD TO CLD VIS AND WIND=



000
FTUS45 KGGW 281100 RRA
TAFOLF
TAF
KOLF 281142Z 2812/2912 VRB05KT P6SM SKC
     FM282000 26011KT P6SM SKC
     FM290100 32010KT P6SM SCT100=



000
FTUS45 KGGW 281100 RRA
TAFGGW
TAF
KGGW 281142Z 2812/2912 11008KT P6SM SKC
     FM281900 27013KT P6SM SKC
     FM290200 36012KT P6SM SCT100=



    US Dept of Commerce
    National Oceanic and Atmospheric Administration
    National Weather Service
    1325 East West Highway
    Silver Spring, MD 20910
    Page Author: NWS Internet Services Team
Disclaimer
Information Quality
Credits
Glossary
Privacy Policy
Freedom of Information Act (FOIA)
About Us
Career Opportunities